Time;durP1;ratioP1;P1;durP2;ratioP2;P2;SDS_P1;SDS_P2;PMS_P1;PMS_P2;Temp;Humidity;BMP_temperature;BMP_pressure;BME280_temperature;BME280_humidity;BME280_pressure;Samples;Min_cycle;Max_cycle;Signal;HPM_P1;HPM_P2
2022/07/17 00:01:19;;;;;;;3.57;1.40;;;;;;;13.34;80.60;101170.66;3459781;84;98279;-93
2022/07/17 00:06:20;;;;;;;7.07;2.07;;;;;;;13.29;80.88;101162.70;3437946;84;98390;-93
2022/07/17 00:11:21;;;;;;;3.50;1.23;;;;;;;13.26;81.16;101168.19;3424917;85;99060;-93
2022/07/17 00:16:23;;;;;;;3.37;1.67;;;;;;;13.24;81.45;101179.61;3447190;84;98796;-92
2022/07/17 00:21:24;;;;;;;5.17;1.35;;;;;;;13.22;81.48;101180.59;3423810;84;98902;-92
2022/07/17 00:26:25;;;;;;;5.80;1.30;;;;;;;13.17;81.46;101182.87;3452966;84;98933;-92
2022/07/17 00:31:26;;;;;;;5.63;1.40;;;;;;;13.11;81.72;101193.48;3437963;85;31041;-92
2022/07/17 00:36:27;;;;;;;5.27;1.00;;;;;;;13.08;81.89;101187.91;3403359;85;98865;-92
2022/07/17 00:41:28;;;;;;;3.60;1.10;;;;;;;13.05;81.95;101196.94;3444466;84;98585;-93
2022/07/17 00:46:29;;;;;;;3.95;1.30;;;;;;;13.02;82.31;101194.94;3424889;83;98955;-93
2022/07/17 00:51:32;;;;;;;5.67;1.30;;;;;;;12.98;82.05;101187.17;3448092;84;98881;-92
2022/07/17 00:56:34;;;;;;;4.13;1.03;;;;;;;12.91;82.16;101184.30;3412733;83;98715;-92
2022/07/17 01:01:35;;;;;;;4.60;1.30;;;;;;;12.86;82.40;101194.29;3430506;85;98883;-91
2022/07/17 01:06:36;;;;;;;4.90;1.40;;;;;;;12.81;82.50;101193.23;3412189;85;98973;-93
2022/07/17 01:11:37;;;;;;;5.40;1.03;;;;;;;12.76;82.28;101193.55;3438933;85;98647;-93
2022/07/17 01:16:40;;;;;;;6.80;1.00;;;;;;;12.70;82.62;101204.11;3426439;85;98991;-92
2022/07/17 01:21:45;;;;;;;4.53;1.30;;;;;;;12.59;82.64;101197.62;3438952;85;98353;-93
2022/07/17 01:26:48;;;;;;;2.62;0.90;;;;;;;12.59;82.64;101197.62;3418035;84;98827;-92
2022/07/17 01:31:49;;;;;;;5.80;1.10;;;;;;;12.53;82.75;101194.20;3443977;85;98380;-91
2022/07/17 01:36:50;;;;;;;4.37;1.07;;;;;;;12.47;83.35;101196.47;3435729;85;98814;-92
2022/07/17 01:41:51;;;;;;;5.00;1.10;;;;;;;12.44;82.91;101200.55;3432589;85;98623;-92
2022/07/17 01:46:52;;;;;;;3.83;0.90;;;;;;;12.41;83.68;101193.81;3426377;85;98928;-92
2022/07/17 01:51:53;;;;;;;7.13;1.57;;;;;;;12.40;83.50;101192.80;3419156;85;99235;-91
2022/07/17 01:56:54;;;;;;;6.67;1.25;;;;;;;12.36;83.88;101196.07;3433840;85;98837;-92
2022/07/17 02:01:55;;;;;;;6.43;2.13;;;;;;;12.33;84.08;101192.69;3439754;85;99199;-92
2022/07/17 02:06:56;;;;;;;5.47;1.27;;;;;;;12.32;84.15;101191.88;3430590;85;98808;-93
2022/07/17 02:11:57;;;;;;;4.90;1.10;;;;;;;12.31;84.33;101199.17;3440291;84;98639;-91
2022/07/17 02:16:58;;;;;;;4.60;1.15;;;;;;;12.33;84.50;101202.34;3449907;85;98812;-92
2022/07/17 02:21:59;;;;;;;4.63;1.30;;;;;;;12.32;84.51;101201.54;3434109;84;98795;-93
2022/07/17 02:27:01;;;;;;;7.50;1.80;;;;;;;12.30;84.55;101196.98;3443001;83;98720;-92
2022/07/17 02:32:02;;;;;;;7.78;1.42;;;;;;;12.29;84.67;101206.44;3457089;85;98796;-92
2022/07/17 02:37:03;;;;;;;5.15;1.20;;;;;;;12.30;84.79;101208.02;3468016;84;98879;-91
2022/07/17 02:42:04;;;;;;;7.23;1.00;;;;;;;12.29;84.80;101205.63;3480159;85;97888;-93
2022/07/17 02:47:05;;;;;;;3.67;1.10;;;;;;;12.26;84.97;101211.91;3465909;84;98797;-91
2022/07/17 02:52:06;;;;;;;5.73;1.40;;;;;;;12.23;85.07;101208.48;3484515;84;98815;-92
2022/07/17 02:57:07;;;;;;;4.10;1.03;;;;;;;12.04;84.55;101221.77;3454373;84;98887;-93
2022/07/17 03:02:08;;;;;;;6.00;1.40;;;;;;;11.97;85.37;101227.73;3473737;84;98902;-92
2022/07/17 03:07:10;;;;;;;4.97;1.60;;;;;;;11.99;85.39;101226.80;3417203;84;98804;-93
2022/07/17 03:12:11;;;;;;;3.47;1.17;;;;;;;11.99;85.73;101222.06;3418870;84;98750;-93
2022/07/17 03:17:12;;;;;;;6.83;1.43;;;;;;;12.02;85.73;101224.67;3431299;84;98689;-93
2022/07/17 03:22:14;;;;;;;5.50;1.10;;;;;;;12.05;85.59;101219.81;3424143;84;98802;-92
2022/07/17 03:27:15;;;;;;;5.13;1.67;;;;;;;12.04;85.87;101227.28;3414488;84;99046;-93
2022/07/17 03:32:16;;;;;;;4.43;1.53;;;;;;;12.05;85.66;101240.50;3430889;85;98838;-94
2022/07/17 03:37:17;;;;;;;5.47;1.50;;;;;;;11.97;85.18;101226.35;3420758;84;98904;-91
2022/07/17 03:42:18;;;;;;;3.60;1.20;;;;;;;11.79;85.29;101239.03;3427808;84;98416;-93
2022/07/17 03:47:19;;;;;;;6.93;1.67;;;;;;;11.79;86.07;101241.78;3436426;84;98853;-92
2022/07/17 03:52:20;;;;;;;7.00;2.17;;;;;;;11.77;86.23;101241.36;3425862;84;98819;-94
2022/07/17 03:57:21;;;;;;;6.93;1.87;;;;;;;11.66;86.22;101253.55;3424711;85;98885;-93
2022/07/17 04:02:23;;;;;;;6.63;1.93;;;;;;;11.57;86.86;101255.72;3420939;85;98780;-93
2022/07/17 04:07:27;;;;;;;8.68;1.82;;;;;;;11.53;87.34;101267.25;3439921;84;98501;-96
2022/07/17 04:12:28;;;;;;;7.20;2.00;;;;;;;11.45;88.29;101257.22;3398605;85;25754;-96
2022/07/17 04:17:29;;;;;;;4.77;1.63;;;;;;;11.45;88.29;101257.22;3409863;85;98801;-95
2022/07/17 04:22:30;;;;;;;8.20;2.20;;;;;;;11.63;88.57;101275.55;3430585;85;98835;-92
2022/07/17 04:27:31;;;;;;;7.33;2.07;;;;;;;11.69;88.86;101276.27;3435271;84;98893;-92
2022/07/17 04:32:32;;;;;;;6.30;2.67;;;;;;;11.73;89.43;101277.72;3450551;85;97987;-92
2022/07/17 04:37:33;;;;;;;9.97;2.20;;;;;;;11.77;89.68;101280.75;3403101;85;98878;-91
2022/07/17 04:42:34;;;;;;;9.50;1.70;;;;;;;11.85;90.31;101280.31;3444291;85;32944;-94
2022/07/17 04:47:36;;;;;;;7.45;2.08;;;;;;;11.90;90.59;101278.08;3407008;85;98808;-96
2022/07/17 04:52:37;;;;;;;8.93;1.70;;;;;;;11.99;90.37;101285.52;3438957;85;98523;-93
2022/07/17 04:57:38;;;;;;;7.50;1.97;;;;;;;12.09;90.90;101293.77;3431086;85;98832;-96
2022/07/17 05:02:39;;;;;;;11.60;1.70;;;;;;;12.16;90.80;101289.19;3433917;85;98032;-95
2022/07/17 05:07:41;;;;;;;8.73;1.87;;;;;;;12.26;90.88;101296.86;3426564;85;99043;-96
2022/07/17 05:12:42;;;;;;;7.43;1.67;;;;;;;12.39;90.67;101306.58;3441779;85;33359;-94
2022/07/17 05:17:43;;;;;;;6.43;1.90;;;;;;;12.53;90.83;101313.71;3463923;84;98709;-92
2022/07/17 05:22:44;;;;;;;8.83;2.10;;;;;;;12.70;91.11;101311.05;3471032;84;98959;-95
2022/07/17 05:27:45;;;;;;;7.08;2.33;;;;;;;12.95;91.43;101312.22;3470019;83;98924;-95
2022/07/17 05:32:46;;;;;;;7.93;2.10;;;;;;;13.28;91.21;101310.97;3469064;84;98748;-90
2022/07/17 05:37:47;;;;;;;9.45;1.47;;;;;;;13.77;90.99;101321.30;3463173;84;98955;-92
2022/07/17 05:42:48;;;;;;;8.28;2.25;;;;;;;14.36;90.28;101324.79;3468765;85;33014;-94
2022/07/17 05:47:49;;;;;;;5.57;1.70;;;;;;;15.10;90.18;101328.97;3427715;84;99182;-92
2022/07/17 05:52:50;;;;;;;6.47;1.60;;;;;;;15.94;88.05;101338.37;3465692;84;98644;-93
2022/07/17 05:57:51;;;;;;;5.60;1.40;;;;;;;16.86;86.89;101337.39;3467176;84;98885;-95
2022/07/17 06:02:52;;;;;;;7.10;1.40;;;;;;;17.72;85.55;101344.64;3467069;84;98882;-92
2022/07/17 06:07:57;;;;;;;7.13;1.77;;;;;;;18.61;82.75;101353.55;3473779;84;98898;-92
2022/07/17 06:12:58;;;;;;;9.13;1.33;;;;;;;19.41;80.48;101351.47;3486379;84;25843;-94
2022/07/17 06:18:04;;;;;;;6.77;1.77;;;;;;;20.01;78.02;101352.20;3466333;83;99170;-92
2022/07/17 06:23:05;;;;;;;9.90;1.30;;;;;;;20.59;76.03;101357.41;3459330;84;98923;-93
2022/07/17 06:28:06;;;;;;;8.23;1.30;;;;;;;21.25;74.95;101360.52;3461674;83;98934;-93
2022/07/17 06:33:07;;;;;;;10.30;1.67;;;;;;;21.88;72.42;101358.55;3486587;84;98786;-92
2022/07/17 06:38:10;;;;;;;7.03;1.17;;;;;;;22.50;70.75;101352.20;3457575;84;98964;-93
2022/07/17 06:43:11;;;;;;;8.70;1.60;;;;;;;22.88;68.44;101357.49;3484374;84;25852;-92
2022/07/17 06:48:12;;;;;;;5.87;1.20;;;;;;;23.31;66.14;101362.23;3451387;84;98794;-92
2022/07/17 06:53:14;;;;;;;6.20;1.35;;;;;;;23.76;65.94;101357.38;3478087;84;98738;-91
2022/07/17 06:58:15;;;;;;;6.72;1.35;;;;;;;24.18;64.40;101368.04;3471120;84;98890;-91
2022/07/17 07:03:16;;;;;;;7.72;1.82;;;;;;;24.31;61.40;101360.42;3480564;84;98947;-93
2022/07/17 07:08:17;;;;;;;5.33;1.10;;;;;;;24.48;61.79;101369.73;3471308;84;99453;-92
2022/07/17 07:13:18;;;;;;;6.45;1.55;;;;;;;24.51;59.45;101369.43;3374385;87;33452;-91
2022/07/17 07:18:19;;;;;;;7.30;1.40;;;;;;;24.48;58.41;101373.96;3345520;85;99115;-92
2022/07/17 07:23:20;;;;;;;6.80;1.35;;;;;;;24.66;56.69;101367.17;3371299;87;98638;-92
2022/07/17 07:28:21;;;;;;;7.85;1.50;;;;;;;24.64;56.40;101372.45;3368016;87;98987;-91
2022/07/17 07:33:22;;;;;;;3.95;1.00;;;;;;;24.65;55.09;101374.05;3485660;84;99220;-90
2022/07/17 07:38:23;;;;;;;5.75;1.42;;;;;;;24.41;53.29;101367.12;3472692;84;98770;-89
2022/07/17 07:43:24;;;;;;;9.55;1.80;;;;;;;24.65;54.47;101374.05;3499401;84;32951;-90
2022/07/17 07:48:25;;;;;;;7.70;1.27;;;;;;;25.00;53.80;101377.72;3481579;84;98544;-92
2022/07/17 07:53:27;;;;;;;5.83;1.10;;;;;;;25.03;51.89;101378.23;3480323;84;98968;-89
2022/07/17 07:58:28;;;;;;;5.12;1.22;;;;;;;24.98;52.10;101388.66;3458034;84;99263;-91
2022/07/17 08:03:29;;;;;;;6.97;1.35;;;;;;;24.01;48.86;101398.28;3481248;84;99283;-88
2022/07/17 08:08:30;;;;;;;5.50;1.60;;;;;;;24.01;48.86;101398.28;3471200;84;99161;-91
2022/07/17 08:13:31;;;;;;;5.05;1.10;;;;;;;23.93;48.42;101398.92;3469126;84;99141;-92
2022/07/17 08:18:33;;;;;;;6.60;1.82;;;;;;;23.88;48.07;101407.88;3463119;84;98858;-93
2022/07/17 08:23:34;;;;;;;6.80;1.20;;;;;;;23.78;47.95;101416.78;3473914;84;99076;-92
2022/07/17 08:28:35;;;;;;;6.22;1.15;;;;;;;23.96;47.70;101412.87;3496519;83;99321;-91
2022/07/17 08:33:36;;;;;;;6.70;0.90;;;;;;;24.12;49.31;101426.09;3469710;84;99491;-92
2022/07/17 08:38:37;;;;;;;4.53;1.02;;;;;;;24.20;45.25;101429.66;3484267;84;99438;-91
2022/07/17 08:43:38;;;;;;;8.38;1.22;;;;;;;23.83;47.95;101443.56;3471806;84;98124;-91
2022/07/17 08:48:41;;;;;;;6.22;1.57;;;;;;;23.74;46.95;101441.98;3365297;85;98577;-92
2022/07/17 08:53:43;;;;;;;3.95;1.62;;;;;;;23.78;48.52;101445.50;3383694;86;98745;-92
2022/07/17 08:58:45;;;;;;;4.50;1.07;;;;;;;23.74;47.13;101441.98;3378020;85;98926;-90
2022/07/17 09:04:06;;;;;;;2.62;0.95;;;;;;;23.59;47.13;101437.36;3373785;85;98073;-91
2022/07/17 09:09:13;;;;;;;5.17;1.15;;;;;;;23.43;48.29;101435.20;3446189;84;99475;-89
2022/07/17 09:14:15;;;;;;;5.15;1.45;;;;;;;23.82;47.09;101430.10;3440699;85;99488;-90
2022/07/17 09:19:36;;;;;;;3.75;1.10;;;;;;;24.35;47.92;101435.68;3438461;84;98991;-89
2022/07/17 09:24:58;;;;;;;7.15;1.17;;;;;;;24.35;47.15;101432.23;3443891;84;26591;-89
2022/07/17 09:30:10;;;;;;;6.22;1.32;;;;;;;24.57;46.39;101426.77;3443940;84;99291;-90
2022/07/17 09:35:11;;;;;;;5.37;1.30;;;;;;;24.66;45.81;101440.98;3449282;84;99176;-88
2022/07/17 09:45:35;;;;;;;4.05;1.00;;;;;;;25.52;44.69;101429.53;3434211;84;98834;-91
2022/07/17 09:50:37;;;;;;;5.20;1.22;;;;;;;25.29;43.52;101443.21;3411053;85;99381;-89
2022/07/17 09:55:41;;;;;;;4.20;0.98;;;;;;;24.93;44.11;101439.32;3416116;85;98933;-91
2022/07/17 10:00:42;;;;;;;6.67;1.17;;;;;;;25.16;43.54;101449.44;3397429;85;98368;-86
2022/07/17 10:05:43;;;;;;;5.35;1.32;;;;;;;25.51;41.66;101438.44;3435620;85;99292;-89
2022/07/17 10:10:44;;;;;;;5.30;1.57;;;;;;;25.62;42.33;101443.08;3477423;83;99446;-91
2022/07/17 10:15:46;;;;;;;2.72;1.10;;;;;;;25.36;40.75;101445.79;3478921;84;99427;-90
2022/07/17 10:20:47;;;;;;;4.30;1.15;;;;;;;25.41;43.80;101441.79;3487193;84;99311;-89
2022/07/17 10:25:58;;;;;;;5.72;1.25;;;;;;;25.48;41.07;101439.33;3477641;84;98987;-89
2022/07/17 10:30:59;;;;;;;6.90;1.40;;;;;;;25.42;41.09;101434.10;3473991;84;98899;-88
2022/07/17 10:36:00;;;;;;;4.80;1.20;;;;;;;25.83;42.29;101436.70;3469438;84;99122;-89
2022/07/17 10:41:03;;;;;;;7.45;1.10;;;;;;;26.13;41.62;101432.59;3484402;84;99010;-87
2022/07/17 10:46:04;;;;;;;6.90;1.30;;;;;;;26.69;42.23;101441.73;3495887;84;99421;-87
2022/07/17 10:51:06;;;;;;;2.77;0.90;;;;;;;26.56;40.01;101455.17;3482230;82;99331;-88
2022/07/17 10:56:10;;;;;;;4.90;1.20;;;;;;;26.54;40.29;101441.32;3478303;84;99332;-89
2022/07/17 11:01:16;;;;;;;7.03;1.62;;;;;;;26.70;39.65;101438.30;3464068;84;98692;-87
2022/07/17 11:06:31;;;;;;;6.30;1.10;;;;;;;27.16;41.55;101440.84;3477871;84;98525;-90
2022/07/17 11:11:43;;;;;;;4.28;1.07;;;;;;;27.66;39.87;101446.63;3489105;84;98720;-89
2022/07/17 11:16:52;;;;;;;8.23;1.42;;;;;;;27.73;38.03;101444.28;3461168;84;98887;-89
2022/07/17 11:21:57;;;;;;;7.65;1.67;;;;;;;27.73;38.04;101442.09;3492021;84;99150;-87
2022/07/17 11:26:58;;;;;;;6.87;1.40;;;;;;;28.08;39.45;101445.59;3477188;83;99246;-89
2022/07/17 11:31:59;;;;;;;4.85;1.47;;;;;;;28.64;37.46;101431.66;3491149;82;98790;-86
2022/07/17 11:37:03;;;;;;;4.27;1.10;;;;;;;28.15;38.30;101438.80;3490965;84;98555;-89
2022/07/17 11:42:11;;;;;;;8.13;1.23;;;;;;;28.50;37.66;101431.55;3488677;84;98708;-86
2022/07/17 11:47:17;;;;;;;6.33;1.00;;;;;;;28.50;35.58;101442.23;3457140;84;98979;-89
2022/07/17 11:52:20;;;;;;;6.87;1.02;;;;;;;28.46;36.48;101430.30;3452137;84;99276;-84
2022/07/17 11:57:26;;;;;;;5.00;1.20;;;;;;;28.81;36.77;101434.89;3460771;84;98889;-83
2022/07/17 12:02:30;;;;;;;4.62;1.40;;;;;;;28.52;33.60;101433.27;3460091;84;98780;-87
2022/07/17 12:07:43;;;;;;;;;;;;;;;28.55;34.69;101433.09;3485216;84;98945;-87
2022/07/17 12:13:06;;;;;;;3.35;1.00;;;;;;;28.36;35.00;101432.16;3446983;85;25937;-88
2022/07/17 12:18:14;;;;;;;6.47;1.55;;;;;;;28.99;36.25;101432.03;3451738;85;98657;-87
2022/07/17 12:23:36;;;;;;;6.40;1.35;;;;;;;29.31;35.21;101422.07;3435408;84;98770;-86
2022/07/17 12:28:38;;;;;;;4.42;1.00;;;;;;;29.21;35.13;101419.13;3466891;84;99189;-88
2022/07/17 12:33:40;;;;;;;3.52;1.17;;;;;;;29.57;35.95;101418.14;3466272;84;98893;-85
2022/07/17 12:38:41;;;;;;;5.53;1.42;;;;;;;29.70;36.02;101415.20;3453765;84;98891;-85
2022/07/17 12:43:43;;;;;;;4.75;1.12;;;;;;;29.82;33.33;101426.95;3455528;84;98967;-87
2022/07/17 12:48:45;;;;;;;5.15;1.35;;;;;;;29.52;34.83;101411.69;3451301;84;98553;-89
2022/07/17 12:53:46;;;;;;;4.25;1.17;;;;;;;29.38;34.20;101407.52;3467168;85;98617;-83
2022/07/17 12:58:47;;;;;;;6.45;1.30;;;;;;;29.30;35.56;101407.74;3471328;84;98938;-85
2022/07/17 13:03:48;;;;;;;3.25;1.37;;;;;;;29.22;34.67;101410.80;3466785;84;98556;-87
2022/07/17 13:08:49;;;;;;;8.40;1.85;;;;;;;29.48;34.62;101400.52;3472870;84;98871;-86
2022/07/17 13:13:50;;;;;;;4.17;1.17;;;;;;;29.57;33.10;101399.08;3502030;84;99009;-92
2022/07/17 13:18:51;;;;;;;4.28;1.37;;;;;;;29.18;32.88;101399.47;3460571;84;98775;-85
2022/07/17 13:23:52;;;;;;;7.10;1.85;;;;;;;28.61;33.28;101395.00;3498830;84;98794;-85
2022/07/17 13:28:54;;;;;;;4.90;1.52;;;;;;;28.52;34.39;101402.10;3469498;83;98649;-87
2022/07/17 13:33:55;;;;;;;3.60;0.88;;;;;;;28.08;33.73;101393.84;3470304;84;98897;-85
2022/07/17 13:38:56;;;;;;;6.62;1.30;;;;;;;28.25;34.98;101400.72;3493907;84;99070;-87
2022/07/17 13:43:57;;;;;;;2.70;0.95;;;;;;;28.13;34.35;101404.53;3490933;84;98823;-85
2022/07/17 13:48:59;;;;;;;6.40;1.27;;;;;;;28.14;35.43;101404.06;3468957;84;98884;-87
2022/07/17 13:54:00;;;;;;;5.80;1.35;;;;;;;28.03;33.80;101408.00;3442981;84;98878;-85
2022/07/17 13:59:01;;;;;;;5.10;1.40;;;;;;;27.52;34.73;101402.00;3469398;83;99153;-86
2022/07/17 14:04:02;;;;;;;6.92;1.32;;;;;;;27.53;35.34;101397.91;3476819;84;99330;-84
2022/07/17 14:09:03;;;;;;;6.03;1.40;;;;;;;27.76;35.88;101400.91;3458474;84;98892;-86
2022/07/17 14:14:04;;;;;;;3.20;1.20;;;;;;;27.61;35.68;101397.75;3487268;84;98939;-83
2022/07/17 14:19:05;;;;;;;3.80;1.50;;;;;;;27.54;35.71;101404.52;3451060;84;98781;-86
2022/07/17 14:24:07;;;;;;;5.15;1.77;;;;;;;27.62;36.11;101388.80;3475444;85;98735;-83
2022/07/17 14:29:08;;;;;;;3.85;1.10;;;;;;;27.48;36.55;101395.09;3482695;83;98690;-86
2022/07/17 14:34:09;;;;;;;6.17;1.32;;;;;;;27.34;35.40;101386.41;3467975;84;98926;-86
2022/07/17 14:39:11;;;;;;;2.42;1.00;;;;;;;26.99;35.52;101374.55;3430019;84;98719;-85
2022/07/17 14:44:13;;;;;;;3.98;1.17;;;;;;;26.88;36.71;101384.09;3477467;85;99310;-83
2022/07/17 14:49:14;;;;;;;5.42;1.20;;;;;;;26.95;37.35;101380.95;3462079;85;98525;-85
2022/07/17 14:54:16;;;;;;;3.15;1.20;;;;;;;26.89;36.28;101369.31;3466236;85;98654;-85
2022/07/17 14:59:17;;;;;;;2.92;1.05;;;;;;;26.93;39.46;101362.28;3454097;84;99252;-84
2022/07/17 15:04:18;;;;;;;5.42;2.25;;;;;;;26.86;36.87;101362.55;3451969;84;98810;-83
2022/07/17 15:09:19;;;;;;;4.45;1.37;;;;;;;26.74;37.85;101362.05;3458642;84;98952;-82
2022/07/17 15:14:20;;;;;;;5.50;1.77;;;;;;;26.59;37.89;101365.92;3487804;84;98974;-83
2022/07/17 15:19:22;;;;;;;4.05;1.20;;;;;;;26.63;37.95;101359.48;3492646;84;99026;-82
2022/07/17 15:24:23;;;;;;;2.83;1.12;;;;;;;26.70;39.11;101352.92;3500258;83;98737;-87
2022/07/17 15:29:24;;;;;;;6.42;1.30;;;;;;;26.49;37.76;101348.09;3460630;83;99200;-85
2022/07/17 15:34:25;;;;;;;3.37;1.00;;;;;;;26.17;38.25;101354.23;3469938;84;99071;-84
2022/07/17 15:39:26;;;;;;;7.22;1.10;;;;;;;26.25;39.59;101343.42;3484290;84;98870;-85
2022/07/17 15:44:27;;;;;;;3.90;1.15;;;;;;;26.13;38.56;101344.30;3476304;84;98778;-83
2022/07/17 15:49:28;;;;;;;4.70;1.30;;;;;;;26.04;39.36;101349.27;3466237;84;98820;-84
2022/07/17 15:54:30;;;;;;;4.83;1.10;;;;;;;25.92;39.01;101352.16;3492585;84;34937;-86
2022/07/17 15:59:31;;;;;;;4.35;1.22;;;;;;;25.46;38.58;101345.37;3483591;84;98942;-85
2022/07/17 16:04:32;;;;;;;2.35;0.90;;;;;;;25.19;39.42;101348.52;3466444;84;99219;-84
2022/07/17 16:09:34;;;;;;;3.72;1.00;;;;;;;24.97;39.37;101351.28;3460063;84;99149;-84
2022/07/17 16:14:35;;;;;;;5.70;1.30;;;;;;;24.66;40.04;101342.45;3454459;84;99273;-84
2022/07/17 16:19:36;;;;;;;6.65;1.20;;;;;;;24.47;39.77;101338.59;3437514;84;99038;-84
2022/07/17 16:24:37;;;;;;;4.60;1.55;;;;;;;24.07;39.81;101325.37;3443346;84;34790;-84
2022/07/17 16:29:38;;;;;;;2.35;1.17;;;;;;;23.64;40.65;101326.44;3403348;85;98826;-84
2022/07/17 16:34:39;;;;;;;4.80;1.22;;;;;;;23.39;41.03;101316.48;3426198;85;98847;-85
2022/07/17 16:39:40;;;;;;;3.22;1.05;;;;;;;23.28;41.98;101322.38;3431670;84;98901;-84
2022/07/17 16:44:41;;;;;;;5.12;1.70;;;;;;;23.12;41.85;101323.00;3431115;85;98915;-85
2022/07/17 16:49:42;;;;;;;3.60;1.20;;;;;;;22.90;41.52;101329.79;3428692;84;99280;-85
2022/07/17 16:54:44;;;;;;;3.80;1.32;;;;;;;22.71;42.26;101328.44;3437784;85;32413;-86
2022/07/17 16:59:46;;;;;;;4.90;1.45;;;;;;;22.60;42.73;101337.73;3421555;83;99066;-82
2022/07/17 17:04:47;;;;;;;4.03;1.30;;;;;;;22.36;42.86;101326.45;3455439;84;98682;-84
2022/07/17 17:09:48;;;;;;;3.20;1.30;;;;;;;22.18;43.21;101321.87;3409724;83;98825;-85
2022/07/17 17:14:50;;;;;;;6.05;1.90;;;;;;;21.99;43.07;101320.67;3417846;85;98831;-85
2022/07/17 17:19:51;;;;;;;4.25;1.40;;;;;;;21.86;43.62;101323.16;3432541;85;98853;-84
2022/07/17 17:24:52;;;;;;;3.92;1.42;;;;;;;21.72;44.07;101315.84;3426616;84;32490;-86
2022/07/17 17:29:53;;;;;;;3.77;1.22;;;;;;;21.66;44.41;101315.33;3438641;83;98774;-84
2022/07/17 17:34:54;;;;;;;4.45;1.87;;;;;;;21.52;44.10;101324.03;3411616;85;99047;-83
2022/07/17 17:39:56;;;;;;;5.62;1.70;;;;;;;21.37;44.71;101325.52;3438506;85;99242;-83
2022/07/17 17:44:58;;;;;;;2.75;1.22;;;;;;;21.28;44.95;101331.67;3441948;85;98793;-84
2022/07/17 17:50:00;;;;;;;3.20;1.30;;;;;;;21.09;45.04;101331.00;3437760;85;98790;-83
2022/07/17 17:55:01;;;;;;;6.10;2.00;;;;;;;20.96;45.78;101332.84;3440115;85;32728;-84
2022/07/17 18:00:06;;;;;;;1.85;1.12;;;;;;;20.85;46.15;101328.00;3419954;85;98695;-84
2022/07/17 18:05:08;;;;;;;4.03;1.50;;;;;;;20.74;46.30;101329.38;3431689;85;98744;-83
2022/07/17 18:10:10;;;;;;;6.15;1.42;;;;;;;20.65;46.36;101331.94;3450861;84;98868;-84
2022/07/17 18:15:13;;;;;;;5.50;1.77;;;;;;;20.52;46.49;101331.73;3477789;84;98868;-84
2022/07/17 18:20:14;;;;;;;3.30;1.40;;;;;;;20.39;46.45;101330.70;3464178;84;99165;-84
2022/07/17 18:25:15;;;;;;;5.33;1.20;;;;;;;20.30;47.00;101331.86;3469713;83;32827;-84
2022/07/17 18:30:16;;;;;;;6.15;1.70;;;;;;;20.27;48.10;101329.89;3495040;84;98719;-84
2022/07/17 18:35:17;;;;;;;3.55;1.30;;;;;;;20.18;48.78;101344.20;3453744;84;97855;-83
2022/07/17 18:40:18;;;;;;;4.10;1.30;;;;;;;20.05;48.68;101348.13;3495663;84;99165;-83
2022/07/17 18:45:19;;;;;;;2.72;1.20;;;;;;;19.95;49.09;101350.45;3486356;84;98880;-84
2022/07/17 18:50:20;;;;;;;3.00;1.02;;;;;;;19.88;49.94;101356.73;3471671;84;98893;-84
2022/07/17 18:55:21;;;;;;;3.83;1.20;;;;;;;19.80;50.26;101359.44;3466946;84;31280;-85
2022/07/17 19:00:24;;;;;;;5.67;1.75;;;;;;;19.67;50.86;101365.38;3474475;84;98483;-84
2022/07/17 19:05:25;;;;;;;4.42;1.50;;;;;;;19.57;51.57;101370.47;3465820;84;98659;-85
2022/07/17 19:10:27;;;;;;;4.97;1.62;;;;;;;19.48;52.34;101378.53;3480655;84;98390;-84
2022/07/17 19:15:28;;;;;;;4.85;1.40;;;;;;;19.40;53.00;101391.00;3473439;83;98808;-84
2022/07/17 19:20:30;;;;;;;7.75;1.50;;;;;;;19.26;53.55;101391.92;3476524;84;98830;-84
2022/07/17 19:25:36;;;;;;;4.37;1.27;;;;;;;19.14;53.89;101398.57;3461736;83;98897;-84
2022/07/17 19:30:37;;;;;;;4.70;1.72;;;;;;;19.02;54.74;101399.85;3465027;84;98388;-82
2022/07/17 19:35:38;;;;;;;3.65;1.30;;;;;;;18.91;55.49;101413.09;3466990;84;98619;-83
2022/07/17 19:40:40;;;;;;;3.80;1.40;;;;;;;18.79;56.08;101416.95;3449335;84;99309;-83
2022/07/17 19:45:41;;;;;;;8.35;2.12;;;;;;;18.66;56.42;101419.45;3464070;85;98900;-83
2022/07/17 19:50:43;;;;;;;5.62;1.40;;;;;;;18.52;56.84;101426.48;3469341;84;98823;-83
2022/07/17 20:01:03;;;;;;;4.03;1.57;;;;;;;18.24;58.04;101424.41;3419850;84;98394;-84
2022/07/17 20:06:06;;;;;;;7.22;2.20;;;;;;;18.12;58.78;101425.66;3427460;85;99019;-84
2022/07/17 20:11:08;;;;;;;4.12;1.55;;;;;;;17.99;59.21;101427.28;3456426;84;98596;-83
2022/07/17 20:16:09;;;;;;;5.47;1.80;;;;;;;17.90;59.81;101420.55;3504126;84;98899;-83
2022/07/17 20:21:10;;;;;;;5.50;2.05;;;;;;;17.76;59.77;101420.61;3481156;84;98943;-84
2022/07/17 20:26:12;;;;;;;6.25;2.12;;;;;;;17.66;60.62;101414.47;3467180;83;99199;-84
2022/07/17 20:31:13;;;;;;;9.40;3.22;;;;;;;17.59;61.19;101416.66;3495067;84;98719;-84
2022/07/17 20:36:14;;;;;;;13.93;6.15;;;;;;;17.47;61.48;101411.51;3484320;84;97901;-84
2022/07/17 20:41:18;;;;;;;13.20;7.20;;;;;;;17.19;62.01;101375.34;3475176;84;98825;-84
2022/07/17 20:46:21;;;;;;;9.18;3.92;;;;;;;17.25;62.33;101407.13;3483100;84;99221;-84
2022/07/17 20:51:22;;;;;;;9.00;3.58;;;;;;;17.16;62.82;101417.07;3466248;84;98869;-84
2022/07/17 20:56:23;;;;;;;9.15;3.25;;;;;;;17.09;63.15;101410.09;3491910;84;98757;-84
2022/07/17 21:01:26;;;;;;;8.90;3.22;;;;;;;16.97;63.33;101412.70;3504333;84;31745;-84
2022/07/17 21:06:27;;;;;;;8.98;4.03;;;;;;;16.90;63.79;101416.06;3468716;84;98792;-84
2022/07/17 21:11:29;;;;;;;7.75;3.70;;;;;;;16.81;64.46;101417.84;3459500;84;98712;-84
2022/07/17 21:16:30;;;;;;;7.72;3.27;;;;;;;16.76;64.71;101418.80;3424753;84;99145;-84
2022/07/17 21:21:31;;;;;;;9.58;3.00;;;;;;;16.64;64.32;101425.55;3449602;84;99260;-84
2022/07/17 21:26:32;;;;;;;9.53;3.42;;;;;;;16.50;64.66;101431.64;3470830;84;98862;-84
2022/07/17 21:31:34;;;;;;;9.20;2.83;;;;;;;16.44;65.49;101422.09;3489533;84;98876;-84
2022/07/17 21:36:35;;;;;;;6.67;2.53;;;;;;;16.40;65.89;101422.70;3465451;84;98667;-84
2022/07/17 21:41:36;;;;;;;8.57;2.87;;;;;;;16.35;66.14;101424.44;3477993;84;99083;-84
2022/07/17 21:46:37;;;;;;;6.40;2.80;;;;;;;16.27;66.18;101424.20;3472743;84;99864;-84
2022/07/17 21:51:38;;;;;;;8.78;2.83;;;;;;;16.18;66.69;101427.34;3471737;84;99184;-84
2022/07/17 21:56:39;;;;;;;7.50;3.27;;;;;;;16.14;66.95;101427.91;3463302;84;98894;-84
2022/07/17 22:01:41;;;;;;;7.22;2.67;;;;;;;16.04;67.63;101435.62;3490049;84;99050;-84
2022/07/17 22:06:42;;;;;;;7.45;2.72;;;;;;;16.04;67.63;101435.62;3469791;84;98483;-84
2022/07/17 22:11:44;;;;;;;6.92;2.40;;;;;;;15.94;67.51;101421.67;3484115;83;99002;-85
2022/07/17 22:16:45;;;;;;;4.72;2.05;;;;;;;15.84;67.76;101422.41;3446796;85;98935;-84
2022/07/17 22:21:47;;;;;;;6.55;2.42;;;;;;;15.78;68.23;101428.94;3432741;85;98892;-84
2022/07/17 22:26:49;;;;;;;7.72;2.45;;;;;;;15.73;68.44;101436.23;3454600;84;98860;-84
2022/07/17 22:31:50;;;;;;;8.05;3.05;;;;;;;15.62;68.24;101433.98;3424356;84;98938;-84
2022/07/17 22:36:51;;;;;;;6.85;2.25;;;;;;;15.57;68.53;101434.34;3450348;85;98439;-84
2022/07/17 22:41:52;;;;;;;6.93;2.40;;;;;;;15.52;68.84;101431.93;3471967;84;98647;-84
2022/07/17 22:46:53;;;;;;;7.13;3.17;;;;;;;15.49;69.40;101429.91;3455715;83;98658;-84
2022/07/17 22:51:54;;;;;;;8.28;3.05;;;;;;;15.45;69.61;101419.41;3456816;85;99166;-84
2022/07/17 22:56:55;;;;;;;5.58;2.27;;;;;;;15.38;69.49;101423.49;3461428;84;98820;-85
2022/07/17 23:01:57;;;;;;;8.00;2.80;;;;;;;15.33;69.86;101424.45;3463855;85;98840;-85
2022/07/17 23:06:59;;;;;;;5.62;2.50;;;;;;;15.29;69.97;101436.08;3433985;85;98485;-83
2022/07/17 23:12:01;;;;;;;5.06;2.46;;;;;;;15.17;69.55;101429.45;3459692;84;98736;-84
2022/07/17 23:17:02;;;;;;;8.18;2.92;;;;;;;15.10;70.44;101430.17;3478215;84;98737;-84
2022/07/17 23:22:03;;;;;;;7.15;2.90;;;;;;;15.07;70.40;101434.30;3486819;84;98874;-84
2022/07/17 23:27:05;;;;;;;6.53;2.58;;;;;;;15.01;70.47;101432.49;3475644;83;98892;-84
2022/07/17 23:32:24;;;;;;;8.35;2.58;;;;;;;14.93;70.80;101434.98;3477924;84;98396;-84